createdAt,value
2022-12-13T00:02:26.036Z,99748.04
2022-12-13T00:04:54.874Z,99748.20
2022-12-13T00:07:23.542Z,99747.70
2022-12-13T00:09:52.287Z,99751.98
2022-12-13T00:12:20.998Z,99753.16
2022-12-13T00:14:49.723Z,99751.46
2022-12-13T00:17:18.489Z,99751.30
2022-12-13T00:19:48.494Z,99754.70
2022-12-13T00:22:17.169Z,99761.20
2022-12-13T00:24:46.200Z,99760.34
2022-12-13T00:27:15.068Z,99767.85
2022-12-13T00:29:43.771Z,99770.24
2022-12-13T00:32:12.567Z,99777.25
2022-12-13T00:34:41.566Z,99776.73
2022-12-13T00:37:10.293Z,99776.23
2022-12-13T00:39:39.157Z,99775.54
2022-12-13T00:42:07.895Z,99775.19
2022-12-13T00:44:36.658Z,99777.24
2022-12-13T00:47:05.422Z,99774.86
2022-12-13T00:49:34.150Z,99782.02
2022-12-13T00:52:02.966Z,99784.08
2022-12-13T00:54:31.639Z,99783.39
2022-12-13T00:57:00.372Z,99783.73
2022-12-13T00:59:29.241Z,99783.73
2022-12-13T01:01:58.380Z,99784.25
2022-12-13T01:04:27.171Z,99785.27
2022-12-13T01:06:56.013Z,99786.64
2022-12-13T01:09:29.774Z,99785.61
2022-12-13T01:12:05.563Z,99785.95
2022-12-13T01:14:40.793Z,99787.84
2022-12-13T01:17:10.217Z,99788.01
2022-12-13T01:19:39.047Z,99786.80
2022-12-13T01:22:08.268Z,99784.59
2022-12-13T01:24:38.668Z,99788.17
2022-12-13T01:27:07.397Z,99790.91
2022-12-13T01:29:36.303Z,99787.66
2022-12-13T01:32:05.519Z,99790.23
2022-12-13T01:34:34.221Z,99785.77
2022-12-13T01:37:02.956Z,99789.88
2022-12-13T01:39:31.728Z,99787.30
2022-12-13T01:42:07.118Z,99787.64
2022-12-13T01:45:22.441Z,99790.21
2022-12-13T01:47:58.513Z,99792.09
2022-12-13T01:50:44.981Z,99791.58
2022-12-13T01:53:19.553Z,99792.27
2022-12-13T01:56:00.916Z,99798.05
2022-12-13T01:58:30.427Z,99800.96
2022-12-13T02:01:00.857Z,99799.95
2022-12-13T02:03:30.061Z,99803.70
2022-12-13T02:06:07.595Z,99806.95
2022-12-13T02:08:38.986Z,99807.80
2022-12-13T02:11:08.806Z,99812.41
2022-12-13T02:13:40.562Z,99817.19
2022-12-13T02:16:21.962Z,99817.86
2022-12-13T02:19:27.688Z,99820.09
2022-12-13T02:22:31.060Z,99818.20
2022-12-13T02:25:40.829Z,99815.98
2022-12-13T02:28:44.718Z,99815.12
2022-12-13T02:31:23.731Z,99815.29
2022-12-13T02:34:05.629Z,99810.83
2022-12-13T02:37:01.742Z,99806.71
2022-12-13T02:39:48.305Z,99807.90
2022-12-13T02:42:54.064Z,99806.36
2022-12-13T02:45:45.246Z,99806.52
2022-12-13T02:48:19.750Z,99811.46
2022-12-13T02:50:50.085Z,99807.19
2022-12-13T02:53:24.363Z,99805.64
2022-12-13T02:55:53.043Z,99806.48
2022-12-13T02:58:34.634Z,99801.35
2022-12-13T03:01:28.140Z,99803.87
2022-12-13T03:04:26.724Z,99806.06
2022-12-13T03:07:28.752Z,99813.86
2022-12-13T03:10:09.211Z,99816.23
2022-12-13T03:13:06.678Z,99812.81
2022-12-13T03:15:43.185Z,99818.10
2022-12-13T03:18:20.217Z,99819.98
2022-12-13T03:21:03.477Z,99818.97
2022-12-13T03:23:33.479Z,99822.91
2022-12-13T03:26:11.262Z,99824.64
2022-12-13T03:28:41.427Z,99828.73
2022-12-13T03:31:10.395Z,99831.14
2022-12-13T03:33:39.113Z,99830.11
2022-12-13T03:36:10.806Z,99826.39
2022-12-13T03:38:40.866Z,99824.36
2022-12-13T03:41:16.212Z,99825.39
2022-12-13T03:43:45.543Z,99824.19
2022-12-13T03:46:14.241Z,99822.83
2022-12-13T03:48:43.016Z,99817.54
2022-12-13T03:51:11.741Z,99816.33
2022-12-13T03:53:40.506Z,99820.42
2022-12-13T03:56:09.236Z,99815.48
2022-12-13T03:58:38.580Z,99817.16
2022-12-13T04:01:11.121Z,99818.52
2022-12-13T04:03:42.748Z,99816.64
2022-12-13T04:06:13.027Z,99818.85
2022-12-13T04:08:52.964Z,99818.85
2022-12-13T04:11:42.601Z,99820.75
2022-12-13T04:14:12.137Z,99824.52
2022-12-13T04:16:40.799Z,99825.05
2022-12-13T04:19:09.504Z,99826.07
2022-12-13T04:21:38.183Z,99828.11
2022-12-13T04:24:07.055Z,99827.27
2022-12-13T04:26:35.779Z,99825.91
2022-12-13T04:29:04.445Z,99831.02
2022-12-13T04:31:33.143Z,99830.17
2022-12-13T04:34:01.878Z,99830.86
2022-12-13T04:36:32.831Z,99832.23
2022-12-13T04:39:03.219Z,99833.55
2022-12-13T04:41:39.341Z,99832.34
2022-12-13T04:44:28.852Z,99832.81
2022-12-13T04:47:00.953Z,99838.58
2022-12-13T04:49:31.475Z,99839.23
2022-12-13T04:52:02.581Z,99842.98
2022-12-13T04:54:36.560Z,99846.41
2022-12-13T04:57:11.777Z,99848.98
2022-12-13T04:59:40.792Z,99848.46
2022-12-13T05:02:10.759Z,99852.05
2022-12-13T05:04:39.578Z,99851.89
2022-12-13T05:07:08.565Z,99855.64
2022-12-13T05:09:37.364Z,99860.77
2022-12-13T05:12:22.084Z,99861.79
2022-12-13T05:14:53.341Z,99864.19
2022-12-13T05:17:22.717Z,99860.79
2022-12-13T05:19:51.607Z,99861.46
2022-12-13T05:22:21.282Z,99861.28
2022-12-13T05:24:51.158Z,99860.59
2022-12-13T05:27:24.426Z,99864.35
2022-12-13T05:30:02.785Z,99864.52
2022-12-13T05:32:43.871Z,99861.45
2022-12-13T05:35:23.213Z,99861.12
2022-12-13T05:37:53.382Z,99858.73
2022-12-13T05:40:26.788Z,99859.07
2022-12-13T05:43:01.423Z,99856.85
2022-12-13T05:45:32.747Z,99854.95
2022-12-13T05:48:01.969Z,99854.25
2022-12-13T05:50:31.590Z,99855.25
2022-12-13T05:53:00.594Z,99852.17
2022-12-13T05:55:29.391Z,99848.94
2022-12-13T05:58:02.323Z,99846.54
2022-12-13T06:00:31.623Z,99841.23
2022-12-13T06:03:01.934Z,99842.58
2022-12-13T06:05:31.653Z,99843.27
2022-12-13T06:08:01.090Z,99843.81
2022-12-13T06:10:34.108Z,99846.73
2022-12-13T06:13:21.472Z,99849.65
2022-12-13T06:16:01.508Z,99851.70
2022-12-13T06:18:33.413Z,99851.54
2022-12-13T06:21:07.092Z,99850.86
2022-12-13T06:23:36.772Z,99852.73
2022-12-13T06:26:07.914Z,99852.90
2022-12-13T06:28:36.685Z,99851.02
2022-12-13T06:31:05.640Z,99848.64
2022-12-13T06:33:36.763Z,99848.63
2022-12-13T06:36:06.268Z,99849.48
2022-12-13T06:38:35.083Z,99852.39
2022-12-13T06:41:17.362Z,99848.49
2022-12-13T06:43:47.833Z,99847.65
2022-12-13T06:46:16.758Z,99849.02
2022-12-13T06:48:45.981Z,99848.88
2022-12-13T06:51:22.477Z,99846.66
2022-12-13T06:53:53.391Z,99844.61
2022-12-13T06:56:22.773Z,99850.92
2022-12-13T06:58:52.063Z,99860.65
2022-12-13T07:01:24.178Z,99861.33
2022-12-13T07:03:57.864Z,99864.91
2022-12-13T07:06:27.112Z,99865.74
2022-12-13T07:08:58.205Z,99869.50
2022-12-13T07:11:30.052Z,99869.86
2022-12-13T07:14:00.155Z,99871.56
2022-12-13T07:16:29.267Z,99870.04
2022-12-13T07:19:01.668Z,99874.81
2022-12-13T07:21:31.413Z,99873.80
2022-12-13T07:24:01.382Z,99875.70
2022-12-13T07:26:30.221Z,99880.14
2022-12-13T07:28:58.945Z,99882.71
2022-12-13T07:31:27.712Z,99884.92
2022-12-13T07:33:56.508Z,99884.60
2022-12-13T07:36:25.303Z,99885.45
2022-12-13T07:38:57.292Z,99886.48
2022-12-13T07:41:27.201Z,99886.16
2022-12-13T07:43:56.587Z,99888.56
2022-12-13T07:46:33.051Z,99893.34
2022-12-13T07:49:03.717Z,99894.73
2022-12-13T07:51:35.627Z,99895.77
2022-12-13T07:54:06.879Z,99899.20
2022-12-13T07:56:36.669Z,99900.58
2022-12-13T07:59:05.873Z,99898.53
2022-12-13T08:01:35.149Z,99901.44
2022-12-13T08:04:05.014Z,99905.52
2022-12-13T08:06:38.469Z,99907.23
2022-12-13T08:09:07.306Z,99905.52
2022-12-13T08:11:36.186Z,99908.94
2022-12-13T08:14:05.297Z,99914.77
2022-12-13T08:16:34.097Z,99922.30
2022-12-13T08:19:04.500Z,99917.73
2022-12-13T08:21:58.838Z,99920.64
2022-12-13T08:24:31.799Z,99922.55
2022-12-13T08:27:02.914Z,99919.14
2022-12-13T08:29:35.996Z,99923.23
2022-12-13T08:32:09.592Z,99923.05
2022-12-13T08:34:39.784Z,99924.59
2022-12-13T08:37:08.769Z,99921.34
2022-12-13T08:39:39.352Z,99924.77
2022-12-13T08:42:16.099Z,99927.50
2022-12-13T08:44:52.267Z,99930.75
2022-12-13T08:47:26.721Z,99931.10
2022-12-13T08:50:02.572Z,99932.31
2022-12-13T08:52:39.311Z,99931.98
2022-12-13T08:55:12.413Z,99933.54
2022-12-13T08:57:43.851Z,99941.25
2022-12-13T09:00:19.458Z,99934.42
2022-12-13T09:02:48.489Z,99936.64
2022-12-13T09:05:33.764Z,99938.35
2022-12-13T09:08:22.889Z,99942.95
2022-12-13T09:11:11.492Z,99941.09
2022-12-13T09:13:50.566Z,99940.75
2022-12-13T09:16:24.613Z,99941.27
2022-12-13T09:18:54.924Z,99943.84
2022-12-13T09:21:31.757Z,99945.21
2022-12-13T09:24:02.302Z,99947.08
2022-12-13T09:26:38.174Z,99948.11
2022-12-13T09:29:10.611Z,99946.91
2022-12-13T09:31:41.150Z,99945.89
2022-12-13T09:34:11.535Z,99943.67
2022-12-13T09:36:40.546Z,99942.14
2022-12-13T09:39:11.921Z,99942.83
2022-12-13T09:42:01.101Z,99944.02
2022-12-13T09:44:43.599Z,99947.45
2022-12-13T09:47:47.042Z,99952.91
2022-12-13T09:50:37.813Z,99950.52
2022-12-13T09:53:12.073Z,99950.02
2022-12-13T09:55:52.445Z,99951.56
2022-12-13T09:58:28.022Z,99952.58
2022-12-13T10:00:59.206Z,99950.02
2022-12-13T10:03:29.290Z,99950.36
2022-12-13T10:06:31.580Z,99947.81
2022-12-13T10:09:01.258Z,99946.95
2022-12-13T10:11:31.911Z,99948.31
2022-12-13T10:14:40.361Z,99951.91
2022-12-13T10:17:16.340Z,99948.48
2022-12-13T10:19:51.660Z,99952.93
2022-12-13T10:22:25.004Z,99951.90
2022-12-13T10:24:56.655Z,99949.84
2022-12-13T10:27:43.915Z,99948.27
2022-12-13T10:30:28.816Z,99949.64
2022-12-13T10:33:05.045Z,99947.92
2022-12-13T10:35:41.084Z,99940.77
2022-12-13T10:38:16.742Z,99939.59
2022-12-13T10:40:46.812Z,99939.25
2022-12-13T10:43:18.848Z,99942.33
2022-12-13T10:45:58.795Z,99942.15
2022-12-13T10:48:40.222Z,99939.40
2022-12-13T10:51:21.992Z,99940.77
2022-12-13T10:53:56.313Z,99940.09
2022-12-13T10:56:48.171Z,99944.55
2022-12-13T10:59:49.783Z,99940.77
2022-12-13T11:02:37.625Z,99936.51
2022-12-13T11:05:24.682Z,99935.59
2022-12-13T11:07:55.528Z,99940.24
2022-12-13T11:10:30.190Z,99937.05
2022-12-13T11:13:05.045Z,99935.95
2022-12-13T11:15:38.372Z,99939.16
2022-12-13T11:18:24.798Z,99939.06
2022-12-13T11:21:00.435Z,99941.27
2022-12-13T11:23:38.072Z,99938.77
2022-12-13T11:26:17.492Z,99936.67
2022-12-13T11:29:22.331Z,99935.64
2022-12-13T11:32:46.074Z,99931.89
2022-12-13T11:35:26.176Z,99935.45
2022-12-13T11:38:31.445Z,99936.02
2022-12-13T11:41:44.340Z,99935.43
2022-12-13T11:44:23.584Z,99931.30
2022-12-13T11:46:59.763Z,99928.61
2022-12-13T11:49:45.978Z,99936.01
2022-12-13T11:52:29.225Z,99937.42
2022-12-13T11:55:18.346Z,99938.48
2022-12-13T11:58:00.895Z,99941.43
2022-12-13T12:01:04.452Z,99945.37
2022-12-13T12:03:49.916Z,99949.14
2022-12-13T12:06:25.818Z,99951.39
2022-12-13T12:09:01.597Z,99951.21
2022-12-13T12:11:46.346Z,99954.81
2022-12-13T12:14:17.715Z,99951.90
2022-12-13T12:16:54.188Z,99952.60
2022-12-13T12:19:34.583Z,99951.05
2022-12-13T12:22:52.899Z,99949.34
2022-12-13T12:25:53.024Z,99951.91
2022-12-13T12:29:16.580Z,99953.45
2022-12-13T12:32:31.620Z,99957.20
2022-12-13T12:35:29.968Z,99958.23
2022-12-13T12:38:25.003Z,99959.23
2022-12-13T12:41:31.691Z,99962.80
2022-12-13T12:44:21.813Z,99958.70
2022-12-13T12:47:31.898Z,99958.68
2022-12-13T12:50:12.118Z,99963.30
2022-12-13T12:53:08.462Z,99963.98
2022-12-13T12:55:52.394Z,99965.69
2022-12-13T12:58:39.564Z,99963.82
2022-12-13T13:01:43.961Z,99968.09
2022-12-13T13:04:22.499Z,99966.55
2022-12-13T13:07:04.163Z,99969.13
2022-12-13T13:09:55.216Z,99974.60
2022-12-13T13:12:30.455Z,99975.12
2022-12-13T13:15:00.822Z,99977.69
2022-12-13T13:17:29.816Z,99978.72
2022-12-13T13:20:31.064Z,99982.14
2022-12-13T13:23:39.896Z,99979.38
2022-12-13T13:26:35.873Z,99980.39
2022-12-13T13:28:51.666Z,99977.82
2022-12-13T13:31:20.558Z,99987.04
2022-12-13T13:33:51.513Z,99989.09
2022-12-13T13:36:39.069Z,99990.29
2022-12-13T13:39:36.258Z,99990.47
2022-12-13T13:42:13.981Z,99991.50
2022-12-13T13:44:45.507Z,99991.86
2022-12-13T13:47:34.914Z,99990.84
2022-12-13T13:50:12.724Z,99991.02
2022-12-13T13:52:44.222Z,99991.02
2022-12-13T13:56:20.016Z,99988.80
2022-12-13T13:59:18.105Z,99991.52
2022-12-13T14:02:50.600Z,99993.92
2022-12-13T14:05:57.629Z,99996.13
2022-12-13T14:08:36.382Z,100002.42
2022-12-13T14:11:46.661Z,100003.27
2022-12-13T14:14:43.496Z,100008.73
2022-12-13T14:17:53.966Z,100008.38
2022-12-13T14:20:44.691Z,100006.30
2022-12-13T14:23:52.169Z,100006.65
2022-12-13T14:26:54.030Z,100006.46
2022-12-13T14:29:48.093Z,100008.85
2022-12-13T14:32:39.870Z,100011.59
2022-12-13T14:35:30.943Z,100015.19
2022-12-13T14:38:06.252Z,100012.64
2022-12-13T14:40:50.737Z,100011.44
2022-12-13T14:43:31.876Z,100012.98
2022-12-13T14:46:05.039Z,100014.20
2022-12-13T14:48:48.060Z,100013.70
2022-12-13T14:51:39.545Z,100012.16
2022-12-13T14:54:23.992Z,100015.73
2022-12-13T14:57:02.342Z,100017.43
2022-12-13T14:59:33.367Z,100019.98
2022-12-13T15:02:05.586Z,100023.20
2022-12-13T15:04:38.037Z,100020.80
2022-12-13T15:07:37.125Z,100024.22
2022-12-13T15:10:15.041Z,100027.80
2022-12-13T15:12:45.766Z,100031.88
2022-12-13T15:15:29.589Z,100034.77
2022-12-13T15:18:06.674Z,100033.57
2022-12-13T15:20:41.672Z,100036.46
2022-12-13T15:23:48.751Z,100037.84
2022-12-13T15:26:29.017Z,100037.12
2022-12-13T15:29:09.424Z,100038.65
2022-12-13T15:31:40.637Z,100040.71
2022-12-13T15:34:33.956Z,100039.85
2022-12-13T15:37:28.986Z,100043.92
2022-12-13T15:40:07.383Z,100045.23
2022-12-13T15:42:43.682Z,100048.83
2022-12-13T15:45:36.606Z,100051.05
2022-12-13T15:48:06.245Z,100054.27
2022-12-13T15:50:43.864Z,100053.08
2022-12-13T15:53:24.984Z,100055.29
2022-12-13T15:55:53.937Z,100058.98
2022-12-13T15:58:32.268Z,100060.17
2022-12-13T16:01:05.529Z,100057.82
2022-12-13T16:03:44.649Z,100057.84
2022-12-13T16:06:22.370Z,100051.04
2022-12-13T16:08:57.232Z,100050.35
2022-12-13T16:11:32.994Z,100048.27
2022-12-13T16:14:49.602Z,100048.95
2022-12-13T16:17:27.252Z,100053.56
2022-12-13T16:20:07.697Z,100054.93
2022-12-13T16:22:38.886Z,100053.41
2022-12-13T16:25:19.446Z,100051.36
2022-12-13T16:27:48.588Z,100048.79
2022-12-13T16:30:27.875Z,100048.97
2022-12-13T16:33:18.182Z,100052.20
2022-12-13T16:35:45.511Z,100055.61
2022-12-13T16:38:26.825Z,100055.77
2022-12-13T16:41:00.825Z,100059.34
2022-12-13T16:43:56.824Z,100065.45
2022-12-13T16:47:16.708Z,100066.14
2022-12-13T16:49:26.815Z,100066.46
2022-12-13T16:51:57.187Z,100067.95
2022-12-13T16:54:26.670Z,100067.25
2022-12-13T16:56:56.441Z,100068.63
2022-12-13T16:59:27.737Z,100066.60
2022-12-13T17:01:56.493Z,100065.40
2022-12-13T17:04:27.413Z,100067.60
2022-12-13T17:06:56.590Z,100068.42
2022-12-13T17:09:25.498Z,100069.42
2022-12-13T17:11:54.545Z,100073.50
2022-12-13T17:14:23.472Z,100075.36
2022-12-13T17:16:56.008Z,100076.49
2022-12-13T17:19:27.657Z,100071.34
2022-12-13T17:21:56.454Z,100075.10
2022-12-13T17:24:25.246Z,100078.48
2022-12-13T17:26:56.791Z,100076.25
2022-12-13T17:29:25.784Z,100074.90
2022-12-13T17:31:54.886Z,100077.41
2022-12-13T17:34:23.885Z,100077.90
2022-12-13T17:36:52.819Z,100080.63
2022-12-13T17:39:21.985Z,100079.27
2022-12-13T17:41:54.376Z,100081.33
2022-12-13T17:44:26.156Z,100084.55
2022-12-13T17:46:55.746Z,100083.68
2022-12-13T17:49:26.068Z,100084.38
2022-12-13T17:51:55.258Z,100083.17
2022-12-13T17:54:26.020Z,100086.63
2022-12-13T17:56:55.280Z,100088.55
2022-12-13T17:59:24.318Z,100085.52
2022-12-13T18:01:53.653Z,100085.21
2022-12-13T18:04:23.272Z,100088.44
2022-12-13T18:06:52.492Z,100086.41
2022-12-13T18:09:21.350Z,100084.55
2022-12-13T18:11:50.269Z,100085.20
2022-12-13T18:14:18.999Z,100085.17
2022-12-13T18:16:47.865Z,100087.03
2022-12-13T18:19:17.826Z,100085.48
2022-12-13T18:21:48.281Z,100083.08
2022-12-13T18:24:17.065Z,100084.59
2022-12-13T18:26:46.017Z,100087.60
2022-12-13T18:29:14.950Z,100093.20
2022-12-13T18:31:44.256Z,100094.23
2022-12-13T18:34:13.202Z,100094.04
2022-12-13T18:36:42.060Z,100097.96
2022-12-13T18:39:10.980Z,100099.66
2022-12-13T18:41:40.397Z,100098.76
2022-12-13T18:44:11.199Z,100101.76
2022-12-13T18:46:44.766Z,100104.05
2022-12-13T18:49:14.933Z,100109.62
2022-12-13T18:51:43.749Z,100111.77
2022-12-13T18:54:12.637Z,100114.09
2022-12-13T18:56:44.190Z,100115.73
2022-12-13T18:59:13.082Z,100115.17
2022-12-13T19:01:42.226Z,100119.21
2022-12-13T19:04:11.149Z,100116.64
2022-12-13T19:06:39.897Z,100116.79
2022-12-13T19:09:08.702Z,100116.92
2022-12-13T19:11:37.561Z,100121.68
2022-12-13T19:14:06.312Z,100130.56
2022-12-13T19:16:35.569Z,100132.79
2022-12-13T19:19:04.548Z,100129.04
2022-12-13T19:21:33.667Z,100122.73
2022-12-13T19:24:02.546Z,100123.56
2022-12-13T19:26:32.549Z,100124.14
2022-12-13T19:29:02.282Z,100128.28
2022-12-13T19:31:32.675Z,100127.56
2022-12-13T19:34:02.518Z,100128.39
2022-12-13T19:36:32.896Z,100127.70
2022-12-13T19:39:01.646Z,100130.77
2022-12-13T19:41:32.380Z,100134.15
2022-12-13T19:44:05.179Z,100131.58
2022-12-13T19:46:34.376Z,100133.77
2022-12-13T19:49:04.489Z,100134.94
2022-12-13T19:51:39.102Z,100134.75
2022-12-13T19:54:10.579Z,100138.63
2022-12-13T19:56:39.400Z,100138.75
2022-12-13T19:59:08.264Z,100139.39
2022-12-13T20:01:38.444Z,100139.19
2022-12-13T20:04:07.267Z,100142.34
2022-12-13T20:06:36.364Z,100140.26
2022-12-13T20:09:07.423Z,100146.98
2022-12-13T20:11:36.649Z,100148.30
2022-12-13T20:14:05.434Z,100148.64
2022-12-13T20:16:34.385Z,100150.63
2022-12-13T20:19:03.242Z,100151.69
2022-12-13T20:21:32.016Z,100150.65
2022-12-13T20:24:00.965Z,100151.40
2022-12-13T20:26:31.930Z,100152.86
2022-12-13T20:29:00.918Z,100153.52
2022-12-13T20:31:34.613Z,100147.34
2022-12-13T20:34:09.123Z,100147.30
2022-12-13T20:36:37.921Z,100145.36
2022-12-13T20:39:13.699Z,100144.92
2022-12-13T20:41:42.529Z,100142.61
2022-12-13T20:44:12.683Z,100141.48
2022-12-13T20:46:41.741Z,100137.81
2022-12-13T20:49:10.748Z,100137.89
2022-12-13T20:51:41.738Z,100136.75
2022-12-13T20:54:10.763Z,100141.40
2022-12-13T20:56:40.248Z,100145.20
2022-12-13T20:59:13.033Z,100148.34
2022-12-13T21:01:44.795Z,100148.62
2022-12-13T21:04:18.348Z,100147.15
2022-12-13T21:06:47.195Z,100147.06
2022-12-13T21:09:16.051Z,100149.67
2022-12-13T21:11:48.172Z,100156.53
2022-12-13T21:14:22.948Z,100162.41
2022-12-13T21:16:57.221Z,100166.23
2022-12-13T21:19:38.939Z,100169.36
2022-12-13T21:22:08.649Z,100169.00
2022-12-13T21:24:37.446Z,100173.89
2022-12-13T21:27:07.904Z,100174.21
2022-12-13T21:29:36.702Z,100175.73
2022-12-13T21:32:06.345Z,100175.39
2022-12-13T21:34:35.514Z,100176.96
2022-12-13T21:37:05.305Z,100176.34
2022-12-13T21:39:34.096Z,100174.99
2022-12-13T21:42:05.968Z,100173.59
2022-12-13T21:44:34.661Z,100174.59
2022-12-13T21:47:13.603Z,100175.52
2022-12-13T21:49:48.402Z,100172.54
2022-12-13T21:52:18.536Z,100172.69
2022-12-13T21:54:47.357Z,100176.47
2022-12-13T21:57:34.681Z,100174.58
2022-12-13T22:00:05.004Z,100175.60
2022-12-13T22:02:42.055Z,100178.10
2022-12-13T22:05:11.389Z,100180.59
2022-12-13T22:07:40.197Z,100177.67
2022-12-13T22:10:09.495Z,100177.90
2022-12-13T22:12:41.350Z,100175.57
2022-12-13T22:15:14.568Z,100173.40
2022-12-13T22:17:43.536Z,100170.69
2022-12-13T22:20:15.488Z,100170.14
2022-12-13T22:22:45.131Z,100168.08
2022-12-13T22:25:14.496Z,100164.98
2022-12-13T22:27:43.317Z,100161.59
2022-12-13T22:30:12.624Z,100160.08
2022-12-13T22:32:42.430Z,100154.12
2022-12-13T22:35:12.008Z,100145.23
2022-12-13T22:37:40.694Z,100146.89
2022-12-13T22:40:10.723Z,100143.94
2022-12-13T22:42:39.360Z,100139.84
2022-12-13T22:45:08.531Z,100138.46
2022-12-13T22:47:37.197Z,100136.42
2022-12-13T22:50:07.024Z,100134.06
2022-12-13T22:52:35.779Z,100128.48
2022-12-13T22:55:05.067Z,100126.88
2022-12-13T22:57:33.829Z,100126.20
2022-12-13T23:00:02.615Z,100126.58
2022-12-13T23:02:31.805Z,100122.39
2022-12-13T23:05:00.918Z,100117.83
2022-12-13T23:07:29.607Z,100116.48
2022-12-13T23:09:58.266Z,100115.11
2022-12-13T23:12:45.485Z,100112.35
2022-12-13T23:15:14.201Z,100109.11
2022-12-13T23:17:42.913Z,100105.10
2022-12-13T23:20:12.767Z,100102.63
2022-12-13T23:22:41.497Z,100107.09
2022-12-13T23:25:10.258Z,100107.98
2022-12-13T23:27:39.124Z,100112.30
2022-12-13T23:30:09.066Z,100111.66
2022-12-13T23:32:37.774Z,100111.34
2022-12-13T23:35:09.299Z,100113.76
2022-12-13T23:37:38.634Z,100109.65
2022-12-13T23:40:09.108Z,100115.92
2022-12-13T23:42:37.840Z,100109.38
2022-12-13T23:45:07.760Z,100101.19
2022-12-13T23:47:36.422Z,100099.20
2022-12-13T23:50:05.828Z,100095.73
2022-12-13T23:52:34.613Z,100098.92
2022-12-13T23:55:04.989Z,100100.11
2022-12-13T23:57:33.772Z,100100.64
